Etusivu
METAR-TAF:

METAR-TAF

Lentoasemat :

Kōbe, Japani

Leveyspiiri: 34-37-58N, Pituuspiiri: 135-13-26E, korkeus merenpinnasta: 7 m

Tämänhetkinen sää

Tämä raportti tehtiin 1 tunti ja 3 minuuttia sitten, kello 23.00 UTC
Tuuli 9 kn lännestä
Lämpötila 18°C
Kosteus 83%
Ilmanpaine 1004 hPa
Näkyvyys 10 km tai enemmän
Muutamia pilviä 1000 ft:n korkeudessa
Hajonneita pilviä 2000 ft:n korkeudessa
Hajonneita pilviä 3000 ft:n korkeudessa

METAR: RJBE 252300Z 26009KT 9999 FEW010 BKN020 BKN030 18/15 Q1004

Aika: 09:03 (00:03 UTC)


TAF: puuttuu

Säähavainnot ja -ennusteet yli 4000 lentoasemalta (METAR- ja TAF-raportit).

Käytössä olevat sääasemat on merkitty karttaan keltaisilla ja punaisilla pisteillä.

Aseta hiiri pisteen päälle nähdäksesi sääaseman nimen.

Klikkaa sitten nähdäksesi säähavainnot ja -ennusteet.

Kartan vaihtaminen: klikkaa mustalla rastilla varustettuja vihreitä pisteitä, niin voit zoomata sisään; viivalla varustettua vihreää pistettä, niin voit zoomata ulos tai vihreitä nuolia, niin pääset viereisille kartoille.


METAR-TAF: